Time;durP1;ratioP1;P1;durP2;ratioP2;P2;SDS_P1;SDS_P2;PMS_P1;PMS_P2;Temp;Humidity;BMP_temperature;BMP_pressure;BME280_temperature;BME280_humidity;BME280_pressure;Samples;Min_cycle;Max_cycle;Signal;HPM_P1;HPM_P2
2022/01/15 00:01:04;;;;;;;45.20;23.85;;;;;;;;;;5011843;28;20050;-80
2022/01/15 00:03:31;;;;;;;45.70;24.58;;;;;;;;;;5025984;28;20049;-80
2022/01/15 00:05:58;;;;;;;50.08;24.27;;;;;;;;;;5018962;28;20045;-81
2022/01/15 00:08:26;;;;;;;41.45;23.85;;;;;;;;;;5011513;28;20047;-79
2022/01/15 00:10:53;;;;;;;45.25;23.42;;;;;;;;;;5001852;28;20267;-80
2022/01/15 00:13:26;;;;;;;46.92;22.98;;;;;;;;;;5015897;28;20054;-79
2022/01/15 00:16:03;;;;;;;41.42;23.60;;;;;;;;;;5018524;28;20042;-81
2022/01/15 00:18:41;;;;;;;48.38;24.75;;;;;;;;;;5012922;28;20098;-80
2022/01/15 00:21:08;;;;;;;50.30;25.60;;;;;;;;;;5007429;28;20124;-80
2022/01/15 00:23:36;;;;;;;46.97;24.08;;;;;;;;;;5007785;28;20057;-80
2022/01/15 00:26:03;;;;;;;50.75;26.52;;;;;;;;;;5002044;28;20047;-80
2022/01/15 00:28:30;;;;;;;48.60;25.35;;;;;;;;;;5003680;28;20073;-80
2022/01/15 00:30:57;;;;;;;50.33;24.30;;;;;;;;;;5002232;28;20076;-80
2022/01/15 00:33:25;;;;;;;46.28;25.48;;;;;;;;;;5000321;28;20054;-81
2022/01/15 00:35:52;;;;;;;44.80;24.27;;;;;;;;;;5004349;28;20054;-81
2022/01/15 00:38:19;;;;;;;47.47;24.80;;;;;;;;;;4998680;28;20054;-81
2022/01/15 00:40:47;;;;;;;49.45;25.92;;;;;;;;;;5009690;28;20101;-81
2022/01/15 00:43:14;;;;;;;48.50;24.75;;;;;;;;;;5000264;28;20420;-81
2022/01/15 00:45:41;;;;;;;49.85;24.20;;;;;;;;;;5001614;28;20096;-81
2022/01/15 00:48:08;;;;;;;47.03;24.27;;;;;;;;;;5011199;28;20045;-81
2022/01/15 00:50:35;;;;;;;47.63;22.55;;;;;;;;;;5018607;28;20267;-82
2022/01/15 00:53:02;;;;;;;48.10;23.90;;;;;;;;;;5012217;28;20054;-81
2022/01/15 00:55:29;;;;;;;48.28;23.17;;;;;;;;;;5009803;28;20053;-81
2022/01/15 00:57:57;;;;;;;45.03;22.77;;;;;;;;;;5003066;28;20398;-81
2022/01/15 01:00:26;;;;;;;42.42;22.23;;;;;;;;;;4997385;28;20053;-81
2022/01/15 01:02:54;;;;;;;42.30;23.17;;;;;;;;;;4998292;28;20046;-81
2022/01/15 01:05:21;;;;;;;44.45;24.17;;;;;;;;;;4998426;28;20042;-81
2022/01/15 01:07:48;;;;;;;42.65;22.70;;;;;;;;;;4998515;28;20069;-81
2022/01/15 01:10:40;;;;;;;41.75;22.00;;;;;;;;;;5001435;28;20046;-79
2022/01/15 01:13:17;;;;;;;43.75;23.95;;;;;;;;;;4999410;28;20437;-79
2022/01/15 01:21:44;;;;;;;50.42;23.63;;;;;;;;;;4997812;28;20058;-81
2022/01/15 01:24:07;;;;;;;47.42;22.95;;;;;;;;;;5002918;28;20047;-80
2022/01/15 01:26:42;;;;;;;44.53;23.20;;;;;;;;;;4998986;28;20057;-81
2022/01/15 01:29:19;;;;;;;42.53;23.38;;;;;;;;;;4998326;28;20059;-78
2022/01/15 01:31:56;;;;;;;47.63;22.85;;;;;;;;;;4997880;28;20050;-79
2022/01/15 01:34:25;;;;;;;45.80;23.15;;;;;;;;;;4997664;28;20061;-79
2022/01/15 01:36:59;;;;;;;46.25;22.75;;;;;;;;;;5000775;28;20073;-81
2022/01/15 01:39:36;;;;;;;46.38;23.40;;;;;;;;;;5007267;28;20064;-81
2022/01/15 01:42:10;;;;;;;47.50;22.95;;;;;;;;;;5002337;28;20056;-80
2022/01/15 01:44:41;;;;;;;43.13;21.65;;;;;;;;;;4996409;28;20486;-80
2022/01/15 01:47:19;;;;;;;44.42;22.70;;;;;;;;;;4996943;28;20105;-80
2022/01/15 01:49:46;;;;;;;47.67;23.25;;;;;;;;;;4996578;28;20050;-80
2022/01/15 01:52:13;;;;;;;46.03;23.08;;;;;;;;;;4997649;28;20054;-80
2022/01/15 01:54:40;;;;;;;43.95;22.80;;;;;;;;;;5016329;28;20047;-79
2022/01/15 01:57:07;;;;;;;45.10;23.40;;;;;;;;;;5018059;28;20030;-79
2022/01/15 01:59:33;;;;;;;42.30;22.25;;;;;;;;;;5020527;28;20046;-80
2022/01/15 02:02:03;;;;;;;43.50;21.95;;;;;;;;;;5000971;28;20046;-80
2022/01/15 02:04:30;;;;;;;46.28;22.75;;;;;;;;;;5026840;23;20123;-80
2022/01/15 02:06:57;;;;;;;50.08;24.40;;;;;;;;;;5035956;28;20131;-78
2022/01/15 02:09:24;;;;;;;50.50;23.85;;;;;;;;;;5035729;28;20046;-78
2022/01/15 02:11:50;;;;;;;45.13;24.05;;;;;;;;;;5038362;28;20050;-78
2022/01/15 02:14:27;;;;;;;44.45;22.35;;;;;;;;;;5034873;28;20131;-78
2022/01/15 02:16:54;;;;;;;45.45;24.35;;;;;;;;;;5021615;28;20046;-78
2022/01/15 02:19:22;;;;;;;48.17;23.95;;;;;;;;;;5021386;28;20108;-78
2022/01/15 02:24:35;;;;;;;44.50;22.75;;;;;;;;;;5021640;28;20077;-78
2022/01/15 02:27:02;;;;;;;42.85;23.50;;;;;;;;;;5021680;28;20054;-80
2022/01/15 02:29:28;;;;;;;43.00;23.20;;;;;;;;;;5021092;28;20045;-78
2022/01/15 02:31:56;;;;;;;43.85;23.63;;;;;;;;;;5018952;28;20050;-78
2022/01/15 02:34:23;;;;;;;42.00;23.17;;;;;;;;;;5018334;28;20116;-77
2022/01/15 02:36:51;;;;;;;39.88;22.02;;;;;;;;;;5017654;28;20046;-79
2022/01/15 02:39:18;;;;;;;41.22;22.48;;;;;;;;;;5018402;28;20049;-78
2022/01/15 02:41:44;;;;;;;41.22;22.17;;;;;;;;;;5017302;28;20119;-77
2022/01/15 02:44:16;;;;;;;42.45;23.42;;;;;;;;;;5018603;28;20050;-78
2022/01/15 02:49:28;;;;;;;38.03;20.38;;;;;;;;;;5020811;28;20100;-78
2022/01/15 02:51:56;;;;;;;38.05;20.50;;;;;;;;;;5020821;28;20049;-78
2022/01/15 02:54:23;;;;;;;40.50;21.55;;;;;;;;;;5021228;28;20053;-78
2022/01/15 02:56:50;;;;;;;35.97;20.45;;;;;;;;;;5022376;28;20050;-78
2022/01/15 02:59:19;;;;;;;38.30;20.08;;;;;;;;;;5039985;28;20042;-78
2022/01/15 03:01:48;;;;;;;37.00;20.38;;;;;;;;;;5035670;28;20561;-78
2022/01/15 03:04:15;;;;;;;33.85;19.42;;;;;;;;;;5024282;28;20045;-78
2022/01/15 03:06:42;;;;;;;36.58;20.75;;;;;;;;;;5023550;28;20049;-78
2022/01/15 03:09:10;;;;;;;41.58;20.55;;;;;;;;;;5022114;28;20073;-78
2022/01/15 03:12:17;;;;;;;37.42;19.25;;;;;;;;;;5020971;28;20101;-77
2022/01/15 03:14:46;;;;;;;34.90;20.75;;;;;;;;;;4999107;28;20054;-78
2022/01/15 03:17:13;;;;;;;39.15;21.00;;;;;;;;;;5000953;28;20129;-78
2022/01/15 03:19:40;;;;;;;37.17;20.48;;;;;;;;;;5009801;28;20058;-78
2022/01/15 03:22:07;;;;;;;39.45;21.15;;;;;;;;;;5014935;28;20545;-77
2022/01/15 03:24:35;;;;;;;40.05;20.92;;;;;;;;;;5003012;28;20046;-77
2022/01/15 03:27:02;;;;;;;42.17;21.27;;;;;;;;;;4998518;28;20047;-79
2022/01/15 03:29:28;;;;;;;42.58;22.30;;;;;;;;;;4998248;28;20054;-80
2022/01/15 03:31:55;;;;;;;39.33;21.98;;;;;;;;;;5005201;28;20077;-78
2022/01/15 03:34:22;;;;;;;42.50;21.98;;;;;;;;;;5008873;28;20110;-78
2022/01/15 03:36:49;;;;;;;38.35;21.35;;;;;;;;;;5000688;28;20050;-78
2022/01/15 03:39:15;;;;;;;42.95;22.25;;;;;;;;;;5000670;28;20061;-78
2022/01/15 03:41:44;;;;;;;39.78;22.05;;;;;;;;;;5000710;28;20042;-78
2022/01/15 03:44:11;;;;;;;40.83;21.92;;;;;;;;;;5000319;28;20050;-78
2022/01/15 03:46:38;;;;;;;37.25;21.45;;;;;;;;;;4999298;28;20054;-78
2022/01/15 03:49:05;;;;;;;42.53;21.90;;;;;;;;;;4999446;28;20085;-79
2022/01/15 03:51:31;;;;;;;40.55;20.08;;;;;;;;;;4997523;28;20054;-80
2022/01/15 03:53:58;;;;;;;37.67;21.27;;;;;;;;;;4999767;28;20089;-79
2022/01/15 03:56:25;;;;;;;36.13;20.98;;;;;;;;;;5003673;28;20050;-79
2022/01/15 03:58:53;;;;;;;38.53;20.20;;;;;;;;;;5005654;28;20042;-79
2022/01/15 04:01:20;;;;;;;40.78;21.70;;;;;;;;;;5012708;28;20054;-79
2022/01/15 04:03:47;;;;;;;40.15;21.00;;;;;;;;;;5002961;28;20050;-78
2022/01/15 04:06:13;;;;;;;38.67;21.08;;;;;;;;;;4999919;28;20054;-79
2022/01/15 04:08:40;;;;;;;42.72;21.58;;;;;;;;;;4997280;28;20105;-79
2022/01/15 04:11:07;;;;;;;42.90;22.60;;;;;;;;;;4999927;28;20132;-79
2022/01/15 04:13:34;;;;;;;41.40;21.50;;;;;;;;;;4997124;28;20102;-79
2022/01/15 04:16:02;;;;;;;37.60;20.25;;;;;;;;;;4996654;28;20398;-79
2022/01/15 04:18:35;;;;;;;34.53;19.88;;;;;;;;;;4996308;28;20472;-79
2022/01/15 04:21:02;;;;;;;38.80;20.25;;;;;;;;;;4996100;28;20090;-79
2022/01/15 04:23:29;;;;;;;37.63;20.45;;;;;;;;;;4996594;28;20134;-80
2022/01/15 04:25:55;;;;;;;38.15;20.08;;;;;;;;;;4998610;28;20493;-80
2022/01/15 04:28:22;;;;;;;44.95;22.52;;;;;;;;;;4996550;28;20097;-80
2022/01/15 04:30:49;;;;;;;39.70;19.88;;;;;;;;;;4996621;28;20101;-79
2022/01/15 04:33:18;;;;;;;37.88;21.27;;;;;;;;;;4995428;28;20105;-78
2022/01/15 04:35:45;;;;;;;36.78;20.38;;;;;;;;;;4995021;28;20050;-79
2022/01/15 04:38:13;;;;;;;39.45;20.27;;;;;;;;;;4998784;28;20106;-78
2022/01/15 04:40:40;;;;;;;37.40;21.08;;;;;;;;;;4997976;28;20133;-79
2022/01/15 04:43:07;;;;;;;38.63;19.48;;;;;;;;;;4996708;28;20050;-80
2022/01/15 04:45:34;;;;;;;39.47;22.23;;;;;;;;;;4996606;28;20054;-80
2022/01/15 04:48:00;;;;;;;38.08;21.92;;;;;;;;;;4996007;28;20398;-79
2022/01/15 04:50:29;;;;;;;36.03;20.42;;;;;;;;;;4996055;28;20459;-79
2022/01/15 04:52:55;;;;;;;36.95;20.50;;;;;;;;;;4996002;28;20109;-79
2022/01/15 04:55:22;;;;;;;33.58;20.23;;;;;;;;;;4995852;28;20054;-78
2022/01/15 04:57:49;;;;;;;35.60;20.45;;;;;;;;;;4995970;28;20162;-79
2022/01/15 05:00:18;;;;;;;38.13;21.33;;;;;;;;;;4997212;28;20069;-79
2022/01/15 05:02:45;;;;;;;38.53;20.40;;;;;;;;;;4996232;28;20447;-78
2022/01/15 05:05:13;;;;;;;40.40;20.65;;;;;;;;;;5000024;28;20042;-79
2022/01/15 05:07:42;;;;;;;38.53;20.05;;;;;;;;;;5000609;28;20562;-79
2022/01/15 05:10:11;;;;;;;36.78;20.48;;;;;;;;;;4998767;28;20108;-78
2022/01/15 05:12:43;;;;;;;38.15;20.08;;;;;;;;;;4998814;28;20429;-79
2022/01/15 05:15:11;;;;;;;37.85;19.92;;;;;;;;;;4999611;28;20050;-78
2022/01/15 05:17:38;;;;;;;33.97;19.90;;;;;;;;;;4998319;28;20100;-81
2022/01/15 05:20:06;;;;;;;36.90;20.60;;;;;;;;;;4996203;28;20512;-77
2022/01/15 05:22:34;;;;;;;34.88;20.33;;;;;;;;;;4996543;28;20497;-78
2022/01/15 05:25:03;;;;;;;34.83;21.17;;;;;;;;;;4995840;28;20416;-79
2022/01/15 05:27:30;;;;;;;36.95;22.00;;;;;;;;;;4998146;28;20050;-80
2022/01/15 05:29:57;;;;;;;33.25;20.10;;;;;;;;;;5000817;28;20097;-79
2022/01/15 05:32:24;;;;;;;38.35;20.27;;;;;;;;;;5002560;28;20046;-77
2022/01/15 05:34:51;;;;;;;39.70;20.58;;;;;;;;;;5000924;28;20133;-79
2022/01/15 05:37:18;;;;;;;34.42;20.98;;;;;;;;;;4999332;28;20096;-77
2022/01/15 05:39:44;;;;;;;32.78;20.08;;;;;;;;;;4999014;28;20042;-78
2022/01/15 05:42:12;;;;;;;31.50;19.67;;;;;;;;;;4999387;28;20042;-78
2022/01/15 05:44:39;;;;;;;38.17;19.05;;;;;;;;;;4998951;28;20047;-78
2022/01/15 05:47:06;;;;;;;33.08;19.90;;;;;;;;;;5015378;28;20049;-78
2022/01/15 05:49:33;;;;;;;31.75;17.90;;;;;;;;;;5021568;28;20034;-77
2022/01/15 05:52:00;;;;;;;36.40;18.45;;;;;;;;;;5004671;28;20117;-77
2022/01/15 05:54:27;;;;;;;29.60;17.77;;;;;;;;;;5002612;28;20099;-77
2022/01/15 05:56:54;;;;;;;36.67;19.05;;;;;;;;;;5001135;28;20046;-78
2022/01/15 05:59:22;;;;;;;28.75;17.15;;;;;;;;;;5005509;28;20114;-79
2022/01/15 06:01:48;;;;;;;32.35;17.33;;;;;;;;;;5006070;28;20077;-78
2022/01/15 06:04:15;;;;;;;32.40;18.13;;;;;;;;;;5004976;28;20054;-80
2022/01/15 06:06:42;;;;;;;32.22;17.95;;;;;;;;;;5004147;28;20042;-78
2022/01/15 06:09:09;;;;;;;30.80;16.63;;;;;;;;;;5003465;28;20054;-79
2022/01/15 06:11:37;;;;;;;30.35;16.65;;;;;;;;;;5004246;28;20050;-79
2022/01/15 06:14:04;;;;;;;29.85;16.05;;;;;;;;;;5002983;28;20050;-79
2022/01/15 06:16:32;;;;;;;27.67;15.68;;;;;;;;;;5003604;28;20058;-79
2022/01/15 06:18:59;;;;;;;29.83;18.17;;;;;;;;;;5003214;28;20046;-78
2022/01/15 06:21:26;;;;;;;24.58;15.23;;;;;;;;;;5017328;28;20086;-78
2022/01/15 06:23:52;;;;;;;32.33;15.63;;;;;;;;;;5017442;28;20073;-79
2022/01/15 06:26:19;;;;;;;31.05;17.27;;;;;;;;;;5002568;28;20079;-78
2022/01/15 06:28:46;;;;;;;30.45;16.15;;;;;;;;;;5002594;28;20390;-79
2022/01/15 06:31:15;;;;;;;30.63;16.88;;;;;;;;;;5002594;28;20050;-78
2022/01/15 06:33:43;;;;;;;31.02;16.95;;;;;;;;;;5001841;28;20058;-78
2022/01/15 06:36:10;;;;;;;31.60;15.35;;;;;;;;;;5007396;28;20046;-78
2022/01/15 06:38:37;;;;;;;28.80;15.45;;;;;;;;;;5013913;28;20047;-78
2022/01/15 06:41:04;;;;;;;29.60;15.98;;;;;;;;;;5014118;28;20050;-78
2022/01/15 06:43:30;;;;;;;27.98;12.65;;;;;;;;;;5015096;28;20050;-78
2022/01/15 06:45:57;;;;;;;22.17;11.45;;;;;;;;;;5016101;28;20109;-78
2022/01/15 06:48:24;;;;;;;21.25;10.43;;;;;;;;;;5015344;28;20047;-78
2022/01/15 06:50:52;;;;;;;19.90;10.10;;;;;;;;;;5007433;28;20046;-78
2022/01/15 06:53:19;;;;;;;21.90;9.85;;;;;;;;;;5000210;28;20050;-78
2022/01/15 06:55:49;;;;;;;22.45;9.60;;;;;;;;;;5001211;28;20054;-78
2022/01/15 06:58:16;;;;;;;21.48;8.88;;;;;;;;;;4999994;28;20046;-78
2022/01/15 07:00:43;;;;;;;18.45;8.70;;;;;;;;;;5000781;28;20101;-78
2022/01/15 07:03:09;;;;;;;19.73;9.30;;;;;;;;;;5000532;28;20548;-79
2022/01/15 07:05:36;;;;;;;20.50;8.68;;;;;;;;;;5010518;28;20050;-78
2022/01/15 07:08:05;;;;;;;22.30;11.07;;;;;;;;;;5015179;28;20106;-79
2022/01/15 07:10:31;;;;;;;20.02;8.50;;;;;;;;;;5014265;28;20062;-79
2022/01/15 07:12:58;;;;;;;21.83;9.35;;;;;;;;;;5010286;28;20050;-78
2022/01/15 07:15:25;;;;;;;24.42;10.05;;;;;;;;;;5000180;28;20054;-80
2022/01/15 07:17:52;;;;;;;22.23;8.80;;;;;;;;;;5005349;28;20077;-79
2022/01/15 07:20:20;;;;;;;18.83;8.35;;;;;;;;;;4998134;28;20120;-78
2022/01/15 07:22:47;;;;;;;22.42;9.13;;;;;;;;;;5001249;28;20117;-79
2022/01/15 07:25:15;;;;;;;19.90;7.50;;;;;;;;;;5003099;28;20050;-78
2022/01/15 07:27:42;;;;;;;22.02;8.02;;;;;;;;;;5001216;28;20116;-77
2022/01/15 07:30:11;;;;;;;20.98;8.45;;;;;;;;;;4999262;28;20137;-78
2022/01/15 07:32:39;;;;;;;23.40;7.72;;;;;;;;;;5003814;28;20050;-79
2022/01/15 07:35:06;;;;;;;19.80;8.60;;;;;;;;;;5003905;28;20054;-80
2022/01/15 07:37:33;;;;;;;21.98;8.10;;;;;;;;;;5004216;28;20053;-79
2022/01/15 07:40:01;;;;;;;19.38;7.25;;;;;;;;;;4999576;28;20105;-78
2022/01/15 07:42:35;;;;;;;21.67;7.40;;;;;;;;;;4996370;28;20042;-79
2022/01/15 07:45:02;;;;;;;19.80;7.05;;;;;;;;;;4997011;28;20082;-77
2022/01/15 07:47:28;;;;;;;20.52;7.85;;;;;;;;;;4997042;28;20061;-78
2022/01/15 07:49:55;;;;;;;19.92;7.95;;;;;;;;;;4996320;28;20046;-78
2022/01/15 07:52:22;;;;;;;20.95;8.55;;;;;;;;;;4995170;28;20105;-78
2022/01/15 07:54:49;;;;;;;22.67;8.07;;;;;;;;;;4994312;28;20047;-78
2022/01/15 07:57:16;;;;;;;23.98;8.73;;;;;;;;;;4994308;28;20050;-78
2022/01/15 07:59:44;;;;;;;22.90;8.18;;;;;;;;;;4995052;28;20050;-79
2022/01/15 08:02:10;;;;;;;23.10;9.52;;;;;;;;;;4993728;28;20555;-77
2022/01/15 08:04:37;;;;;;;24.40;9.73;;;;;;;;;;4994904;28;20046;-80
2022/01/15 08:07:13;;;;;;;21.75;9.50;;;;;;;;;;5028899;23;20050;-83
2022/01/15 08:09:40;;;;;;;25.45;10.45;;;;;;;;;;5019197;28;20511;-83
2022/01/15 08:12:08;;;;;;;28.35;10.10;;;;;;;;;;5017587;28;20077;-83
2022/01/15 08:14:35;;;;;;;25.02;9.73;;;;;;;;;;5017910;28;20049;-84
2022/01/15 08:17:04;;;;;;;25.25;9.43;;;;;;;;;;5018659;28;20057;-86
2022/01/15 08:19:30;;;;;;;22.55;9.32;;;;;;;;;;5018308;28;20509;-81
2022/01/15 08:22:04;;;;;;;27.83;10.20;;;;;;;;;;5017536;28;20046;-84
2022/01/15 08:24:31;;;;;;;27.48;11.20;;;;;;;;;;5018942;28;20041;-79
2022/01/15 08:26:58;;;;;;;21.38;8.73;;;;;;;;;;5019344;28;20042;-80
2022/01/15 08:29:24;;;;;;;26.10;11.15;;;;;;;;;;5020573;28;20046;-79
2022/01/15 08:31:51;;;;;;;24.52;10.60;;;;;;;;;;5018945;28;20049;-79
2022/01/15 08:34:19;;;;;;;30.50;11.65;;;;;;;;;;5019285;28;20096;-80
2022/01/15 08:36:46;;;;;;;25.90;11.38;;;;;;;;;;5017075;28;20076;-85
2022/01/15 08:39:13;;;;;;;24.98;9.65;;;;;;;;;;5018688;28;20081;-81
2022/01/15 08:41:43;;;;;;;23.52;10.15;;;;;;;;;;5023777;28;20104;-82
2022/01/15 08:44:11;;;;;;;25.13;10.82;;;;;;;;;;5029850;28;20073;-81
2022/01/15 08:46:37;;;;;;;25.98;10.55;;;;;;;;;;5028878;28;20073;-81
2022/01/15 08:49:04;;;;;;;28.45;12.43;;;;;;;;;;5034394;28;20061;-81
2022/01/15 08:51:32;;;;;;;28.38;11.68;;;;;;;;;;5032918;28;20046;-81
2022/01/15 08:53:59;;;;;;;26.52;12.13;;;;;;;;;;5032043;28;20050;-81
2022/01/15 08:56:26;;;;;;;28.52;11.77;;;;;;;;;;5030456;28;20097;-82
2022/01/15 08:58:53;;;;;;;27.52;11.98;;;;;;;;;;5030140;28;20056;-82
2022/01/15 09:01:19;;;;;;;29.88;13.00;;;;;;;;;;5030200;28;20053;-81
2022/01/15 09:03:46;;;;;;;26.98;12.02;;;;;;;;;;5029929;28;20069;-82
2022/01/15 09:06:13;;;;;;;24.77;12.73;;;;;;;;;;5028289;28;20104;-81
2022/01/15 09:08:42;;;;;;;25.50;12.00;;;;;;;;;;5029138;28;20045;-82
2022/01/15 09:11:09;;;;;;;27.70;12.95;;;;;;;;;;5031637;28;20050;-81
2022/01/15 09:13:36;;;;;;;31.50;13.52;;;;;;;;;;5032164;28;20073;-82
2022/01/15 09:16:02;;;;;;;25.10;12.77;;;;;;;;;;5030193;28;20060;-81
2022/01/15 09:18:29;;;;;;;32.65;14.15;;;;;;;;;;5030186;28;20081;-81
2022/01/15 09:20:56;;;;;;;29.60;13.70;;;;;;;;;;5023470;28;20110;-82
2022/01/15 09:23:23;;;;;;;29.85;13.35;;;;;;;;;;5021870;28;20100;-82
2022/01/15 09:25:52;;;;;;;32.55;14.20;;;;;;;;;;5016579;28;20046;-82
2022/01/15 09:31:03;;;;;;;33.00;13.57;;;;;;;;;;5020143;28;20049;-81
2022/01/15 09:33:30;;;;;;;30.42;13.90;;;;;;;;;;5031913;28;20033;-82
2022/01/15 09:35:56;;;;;;;30.40;15.45;;;;;;;;;;5033029;28;20054;-81
2022/01/15 09:38:25;;;;;;;32.33;15.43;;;;;;;;;;5031424;28;20054;-82
2022/01/15 09:40:55;;;;;;;35.53;16.30;;;;;;;;;;5028061;28;20042;-82
2022/01/15 09:43:23;;;;;;;35.80;16.60;;;;;;;;;;5021327;28;20113;-82
2022/01/15 09:45:49;;;;;;;39.60;17.88;;;;;;;;;;5019571;28;20104;-81
2022/01/15 09:48:17;;;;;;;33.42;15.52;;;;;;;;;;5019366;28;20046;-82
2022/01/15 09:50:46;;;;;;;37.72;17.65;;;;;;;;;;5021211;28;20026;-82
2022/01/15 09:53:16;;;;;;;39.63;17.90;;;;;;;;;;5023175;28;20116;-83
2022/01/15 09:55:43;;;;;;;46.40;19.40;;;;;;;;;;5020837;28;20050;-82
2022/01/15 09:58:12;;;;;;;40.75;18.63;;;;;;;;;;5020480;28;20084;-82
2022/01/15 10:00:39;;;;;;;40.67;18.20;;;;;;;;;;5020854;28;20408;-82
2022/01/15 10:03:06;;;;;;;40.38;17.88;;;;;;;;;;5020258;28;20084;-82
2022/01/15 10:05:33;;;;;;;40.05;18.30;;;;;;;;;;5018805;28;20042;-82
2022/01/15 10:08:03;;;;;;;39.00;17.80;;;;;;;;;;5017324;28;20092;-82
2022/01/15 10:10:33;;;;;;;44.57;19.37;;;;;;;;;;5017183;28;20053;-82
2022/01/15 10:13:15;;;;;;;39.20;18.20;;;;;;;;;;5019859;28;20046;-82
2022/01/15 10:15:43;;;;;;;40.65;18.38;;;;;;;;;;5021268;28;20845;-81
2022/01/15 10:18:22;;;;;;;50.90;21.15;;;;;;;;;;5018309;28;20417;-81
2022/01/15 10:20:48;;;;;;;55.25;24.48;;;;;;;;;;5019927;28;20504;-81
2022/01/15 10:23:16;;;;;;;66.78;25.38;;;;;;;;;;5020415;28;20056;-81
2022/01/15 10:25:44;;;;;;;46.13;18.13;;;;;;;;;;5019015;28;20132;-80
2022/01/15 10:28:12;;;;;;;48.22;17.70;;;;;;;;;;5017392;28;20129;-81
2022/01/15 10:30:42;;;;;;;46.70;17.42;;;;;;;;;;5019457;28;20073;-81
2022/01/15 10:33:10;;;;;;;41.50;15.25;;;;;;;;;;5019958;28;20628;-81
2022/01/15 10:35:39;;;;;;;45.67;15.07;;;;;;;;;;5019549;28;20526;-81
2022/01/15 10:38:07;;;;;;;41.95;14.80;;;;;;;;;;5018743;28;20125;-81
2022/01/15 10:40:40;;;;;;;41.90;14.45;;;;;;;;;;5019803;28;20054;-81
2022/01/15 10:43:07;;;;;;;44.05;16.67;;;;;;;;;;5021893;28;20671;-82
2022/01/15 10:45:36;;;;;;;42.80;14.63;;;;;;;;;;5020624;28;20116;-81
2022/01/15 10:48:08;;;;;;;47.33;15.80;;;;;;;;;;5019372;28;20042;-82
2022/01/15 10:50:37;;;;;;;52.53;19.75;;;;;;;;;;5018487;28;20049;-81
2022/01/15 10:53:09;;;;;;;38.22;14.70;;;;;;;;;;5020435;28;20188;-81
2022/01/15 10:55:36;;;;;;;43.88;14.43;;;;;;;;;;5020170;28;20050;-81
2022/01/15 10:58:05;;;;;;;45.25;14.80;;;;;;;;;;5020676;28;20042;-81
2022/01/15 11:00:41;;;;;;;44.83;15.00;;;;;;;;;;5022615;28;20088;-81
2022/01/15 11:03:10;;;;;;;47.72;16.23;;;;;;;;;;5019545;28;20046;-81
2022/01/15 11:05:38;;;;;;;43.17;14.88;;;;;;;;;;5019420;28;20042;-80
2022/01/15 11:08:17;;;;;;;45.05;15.50;;;;;;;;;;5021725;28;20057;-81
2022/01/15 11:10:52;;;;;;;47.15;15.05;;;;;;;;;;5019799;28;20046;-81
2022/01/15 11:13:22;;;;;;;44.28;14.88;;;;;;;;;;5018925;28;20085;-81
2022/01/15 11:15:54;;;;;;;55.28;17.30;;;;;;;;;;5019124;28;20485;-81
2022/01/15 11:18:22;;;;;;;61.90;17.40;;;;;;;;;;5018596;28;20424;-81
2022/01/15 11:20:51;;;;;;;52.88;17.20;;;;;;;;;;5019985;28;20049;-80
2022/01/15 11:23:21;;;;;;;57.72;16.70;;;;;;;;;;5019726;28;20050;-81
2022/01/15 11:25:49;;;;;;;51.97;17.48;;;;;;;;;;5019891;28;20117;-81
2022/01/15 11:28:16;;;;;;;50.17;16.27;;;;;;;;;;5019419;28;20045;-81
2022/01/15 11:30:45;;;;;;;51.72;16.90;;;;;;;;;;5019283;28;20100;-81
2022/01/15 11:33:14;;;;;;;55.70;18.25;;;;;;;;;;5020206;28;20185;-81
2022/01/15 11:35:44;;;;;;;53.90;16.08;;;;;;;;;;5019816;28;20049;-81
2022/01/15 11:38:11;;;;;;;53.97;16.80;;;;;;;;;;5020995;28;20149;-81
2022/01/15 11:40:47;;;;;;;57.17;18.83;;;;;;;;;;5023617;28;20054;-80
2022/01/15 11:43:41;;;;;;;62.50;18.23;;;;;;;;;;5021928;28;20080;-81
2022/01/15 11:46:32;;;;;;;56.42;17.38;;;;;;;;;;5028898;28;20041;-80
2022/01/15 11:49:41;;;;;;;57.77;19.90;;;;;;;;;;5024207;28;20073;-81
2022/01/15 11:52:35;;;;;;;64.18;19.52;;;;;;;;;;4977570;28;20339;-81
2022/01/15 11:55:14;;;;;;;57.47;17.38;;;;;;;;;;4975966;28;20047;-81
2022/01/15 11:57:52;;;;;;;59.28;17.30;;;;;;;;;;5008456;28;20468;-81
2022/01/15 12:00:22;;;;;;;61.60;17.67;;;;;;;;;;5013226;28;20041;-81
2022/01/15 12:03:07;;;;;;;65.40;18.20;;;;;;;;;;5018442;28;20068;-81
2022/01/15 12:05:37;;;;;;;67.30;19.38;;;;;;;;;;5018219;28;20144;-85
2022/01/15 12:08:27;;;;;;;59.10;18.27;;;;;;;;;;5021173;28;20041;-83
2022/01/15 12:10:56;;;;;;;64.88;18.65;;;;;;;;;;5016969;28;20169;-87
2022/01/15 12:13:24;;;;;;;59.30;18.88;;;;;;;;;;5016744;28;20041;-83
2022/01/15 12:16:16;;;;;;;66.93;18.58;;;;;;;;;;5019250;28;20448;-87
2022/01/15 12:18:46;;;;;;;64.40;18.17;;;;;;;;;;5019582;28;20489;-81
2022/01/15 12:21:54;;;;;;;72.00;19.38;;;;;;;;;;5026487;28;20144;-82
2022/01/15 12:24:52;;;;;;;60.10;18.63;;;;;;;;;;5025727;28;20045;-80
2022/01/15 12:27:20;;;;;;;63.00;19.38;;;;;;;;;;5029081;28;20052;-81
2022/01/15 12:29:47;;;;;;;65.43;21.25;;;;;;;;;;5034469;28;20117;-82
2022/01/15 12:32:31;;;;;;;71.65;21.00;;;;;;;;;;5034004;28;20046;-81
2022/01/15 12:34:59;;;;;;;67.18;19.70;;;;;;;;;;5032059;28;20152;-82
2022/01/15 12:37:28;;;;;;;71.50;20.13;;;;;;;;;;5024901;28;20046;-83
2022/01/15 12:39:55;;;;;;;73.13;21.42;;;;;;;;;;5019783;28;20049;-81
2022/01/15 12:42:29;;;;;;;56.15;19.45;;;;;;;;;;5018642;28;20053;-81
2022/01/15 12:44:56;;;;;;;70.55;21.08;;;;;;;;;;5018941;28;20046;-81
2022/01/15 12:47:23;;;;;;;61.25;18.88;;;;;;;;;;5023593;28;20050;-81
2022/01/15 12:49:54;;;;;;;72.13;19.90;;;;;;;;;;5023179;28;20069;-80
2022/01/15 12:52:22;;;;;;;;;;;;;;;;;;5026635;28;20540;-80
2022/01/15 12:54:53;;;;;;;60.65;18.35;;;;;;;;;;5030673;28;19921;-81
2022/01/15 12:57:41;;;;;;;63.40;18.20;;;;;;;;;;5017891;28;20038;-81
2022/01/15 13:00:10;;;;;;;68.57;20.45;;;;;;;;;;5016486;28;20077;-82
2022/01/15 13:02:37;;;;;;;69.10;19.58;;;;;;;;;;5021377;28;20620;-82
2022/01/15 13:05:04;;;;;;;72.03;19.83;;;;;;;;;;5018658;28;20045;-82
2022/01/15 13:07:46;;;;;;;71.07;20.23;;;;;;;;;;5019407;28;20046;-83
2022/01/15 13:10:31;;;;;;;96.60;24.25;;;;;;;;;;5018900;28;20050;-86
2022/01/15 13:12:58;;;;;;;107.80;27.80;;;;;;;;;;5020456;28;20057;-83
2022/01/15 13:15:39;;;;;;;94.78;26.15;;;;;;;;;;5023814;28;20038;-83
2022/01/15 13:18:19;;;;;;;106.70;29.23;;;;;;;;;;5024366;28;20420;-82
2022/01/15 13:20:51;;;;;;;102.93;30.42;;;;;;;;;;5024987;28;20527;-80
2022/01/15 13:23:19;;;;;;;138.90;34.90;;;;;;;;;;5022086;28;20510;-80
2022/01/15 13:25:49;;;;;;;146.65;34.97;;;;;;;;;;5023330;28;20057;-80
2022/01/15 13:28:16;;;;;;;198.73;47.40;;;;;;;;;;5024884;28;20042;-80
2022/01/15 13:30:49;;;;;;;127.15;33.38;;;;;;;;;;5024879;28;20050;-81
2022/01/15 13:33:16;;;;;;;109.20;29.08;;;;;;;;;;5025268;28;20054;-80
2022/01/15 13:35:44;;;;;;;114.93;31.50;;;;;;;;;;5025278;28;20042;-80
2022/01/15 13:38:13;;;;;;;107.47;29.45;;;;;;;;;;5025161;28;20073;-80
2022/01/15 13:40:43;;;;;;;85.28;26.13;;;;;;;;;;5023355;28;20052;-81
2022/01/15 13:43:13;;;;;;;81.45;23.23;;;;;;;;;;5022055;28;20054;-81
2022/01/15 13:45:43;;;;;;;88.30;24.52;;;;;;;;;;5022225;28;20050;-81
2022/01/15 13:48:16;;;;;;;78.03;23.60;;;;;;;;;;5022421;28;20037;-81
2022/01/15 13:53:47;;;;;;;88.30;25.05;;;;;;;;;;5025076;28;20060;-80
2022/01/15 13:56:22;;;;;;;83.70;23.38;;;;;;;;;;5032993;28;20029;-81
2022/01/15 13:58:53;;;;;;;67.13;21.17;;;;;;;;;;5029703;28;20049;-81
2022/01/15 14:01:30;;;;;;;74.82;22.50;;;;;;;;;;5033104;28;20049;-80
2022/01/15 14:03:58;;;;;;;67.32;19.95;;;;;;;;;;5028160;28;20050;-80
2022/01/15 14:06:25;;;;;;;71.63;21.20;;;;;;;;;;5023019;28;20507;-81
2022/01/15 14:09:02;;;;;;;75.03;21.00;;;;;;;;;;5024004;28;20133;-80
2022/01/15 14:11:29;;;;;;;64.82;21.92;;;;;;;;;;5022963;28;20046;-81
2022/01/15 14:14:08;;;;;;;60.95;20.52;;;;;;;;;;5025113;28;20038;-82
2022/01/15 14:16:41;;;;;;;62.47;19.13;;;;;;;;;;5031759;23;20045;-81
2022/01/15 14:19:39;;;;;;;66.40;20.70;;;;;;;;;;5021964;28;20057;-80
2022/01/15 14:22:20;;;;;;;57.30;18.90;;;;;;;;;;5018068;28;20140;-81
2022/01/15 14:24:47;;;;;;;;;;;;;;;;;;5020728;28;20045;-79
2022/01/15 14:27:22;;;;;;;57.35;17.67;;;;;;;;;;5019535;28;20051;-80
2022/01/15 14:29:55;;;;;;;62.22;18.27;;;;;;;;;;5020851;28;20081;-81
2022/01/15 14:32:23;;;;;;;66.30;19.33;;;;;;;;;;5023702;28;20050;-81
2022/01/15 14:34:51;;;;;;;58.33;19.08;;;;;;;;;;5019814;28;20049;-82
2022/01/15 14:37:18;;;;;;;59.30;18.00;;;;;;;;;;5018459;28;20581;-82
2022/01/15 14:39:45;;;;;;;55.78;18.42;;;;;;;;;;5019588;28;20052;-82
2022/01/15 14:42:12;;;;;;;49.33;15.95;;;;;;;;;;5029712;28;20065;-82
2022/01/15 14:44:39;;;;;;;50.97;16.70;;;;;;;;;;5033767;28;20118;-78
2022/01/15 14:47:08;;;;;;;43.13;13.98;;;;;;;;;;5026280;28;20077;-78
2022/01/15 14:49:34;;;;;;;43.70;14.38;;;;;;;;;;5026269;28;20057;-80